Time;durP1;ratioP1;P1;durP2;ratioP2;P2;SDS_P1;SDS_P2;PMS_P1;PMS_P2;Temp;Humidity;BMP_temperature;BMP_pressure;BME280_temperature;BME280_humidity;BME280_pressure;Samples;Min_cycle;Max_cycle;Signal;HPM_P1;HPM_P2
2023/06/13 00:01:50;;;;;;;7.97;6.68;;;15.80;99.90;;;;;;5147518;28;20031;-70
2023/06/13 00:04:23;;;;;;;10.50;6.57;;;15.80;99.90;;;;;;5146708;28;20026;-70
2023/06/13 00:07:00;;;;;;;6.78;6.07;;;15.70;99.90;;;;;;5145985;28;20095;-70
2023/06/13 00:09:31;;;;;;;8.30;5.95;;;15.80;99.90;;;;;;5147402;28;20177;-70
2023/06/13 00:12:03;;;;;;;6.95;6.05;;;15.90;99.90;;;;;;5147277;28;20121;-70
2023/06/13 00:14:34;;;;;;;7.00;5.95;;;15.70;99.90;;;;;;5147087;28;20019;-71
2023/06/13 00:17:05;;;;;;;8.25;6.25;;;15.80;99.90;;;;;;5146359;28;20054;-70
2023/06/13 00:19:36;;;;;;;6.70;5.28;;;15.70;99.90;;;;;;5147236;28;20474;-70
2023/06/13 00:22:09;;;;;;;6.85;6.20;;;15.70;99.90;;;;;;5145779;28;20035;-70
2023/06/13 00:24:41;;;;;;;6.30;5.65;;;15.60;99.90;;;;;;5147025;28;20089;-70
2023/06/13 00:27:12;;;;;;;8.73;5.95;;;15.60;99.90;;;;;;5146141;28;20035;-70
2023/06/13 00:29:43;;;;;;;5.78;5.20;;;15.60;99.90;;;;;;5146774;28;20022;-70
2023/06/13 00:32:14;;;;;;;9.05;6.13;;;15.60;99.90;;;;;;5145623;28;20035;-70
2023/06/13 00:34:46;;;;;;;9.13;6.20;;;15.70;99.90;;;;;;5146030;28;20121;-69
2023/06/13 00:37:17;;;;;;;6.97;5.60;;;15.70;99.90;;;;;;5145500;28;20042;-70
2023/06/13 00:39:48;;;;;;;7.00;6.30;;;15.80;99.90;;;;;;5146800;28;20447;-69
2023/06/13 00:42:20;;;;;;;8.02;5.80;;;15.60;99.90;;;;;;5146586;28;20536;-70
2023/06/13 00:44:51;;;;;;;6.68;6.05;;;15.50;99.90;;;;;;5144436;28;20043;-70
2023/06/13 00:47:26;;;;;;;9.35;6.10;;;15.50;99.90;;;;;;5146597;28;20015;-70
2023/06/13 00:49:56;;;;;;;7.75;7.00;;;15.50;99.90;;;;;;5146433;28;20395;-70
2023/06/13 00:52:27;;;;;;;7.57;6.70;;;15.70;99.90;;;;;;5145309;28;20044;-70
2023/06/13 00:54:58;;;;;;;9.52;6.13;;;15.70;99.90;;;;;;5146337;28;20081;-73
2023/06/13 00:57:31;;;;;;;7.07;6.45;;;15.70;99.90;;;;;;5146442;28;20030;-70
2023/06/13 01:00:04;;;;;;;10.48;6.20;;;15.60;99.90;;;;;;5146395;28;20383;-70
2023/06/13 01:02:35;;;;;;;10.90;6.50;;;15.80;99.90;;;;;;5140533;28;20502;-70
2023/06/13 01:05:11;;;;;;;10.13;7.50;;;15.50;99.90;;;;;;5126420;29;20026;-71
2023/06/13 01:07:42;;;;;;;9.68;6.90;;;15.50;99.90;;;;;;5126697;29;20035;-70
2023/06/13 01:10:13;;;;;;;10.38;6.80;;;15.60;99.90;;;;;;5126057;28;20027;-70
2023/06/13 01:13:00;;;;;;;9.75;6.78;;;15.70;99.90;;;;;;5139397;28;20447;-70
2023/06/13 01:15:35;;;;;;;7.93;6.22;;;15.50;99.90;;;;;;5146046;28;20051;-70
2023/06/13 01:18:10;;;;;;;8.95;6.38;;;15.70;99.90;;;;;;5146269;28;20050;-70
2023/06/13 01:20:44;;;;;;;9.35;5.95;;;15.70;99.90;;;;;;5146004;28;20015;-70
2023/06/13 01:23:28;;;;;;;6.93;6.30;;;15.80;99.90;;;;;;5145141;28;20019;-69
2023/06/13 01:26:21;;;;;;;7.40;6.70;;;15.70;99.90;;;;;;5146000;28;20045;-71
2023/06/13 01:28:55;;;;;;;8.85;5.88;;;15.70;99.90;;;;;;5146039;28;21067;-70
2023/06/13 01:31:27;;;;;;;10.55;7.07;;;15.60;99.90;;;;;;5144879;28;20041;-72
2023/06/13 01:33:59;;;;;;;7.30;6.38;;;15.60;99.90;;;;;;5145781;28;20030;-70
2023/06/13 01:36:30;;;;;;;8.23;6.35;;;15.60;99.90;;;;;;5145687;28;20598;-70
2023/06/13 01:39:02;;;;;;;10.05;7.13;;;15.70;99.90;;;;;;5145704;28;20033;-70
2023/06/13 01:41:33;;;;;;;13.73;7.35;;;15.80;99.90;;;;;;5143720;28;20053;-70
2023/06/13 01:44:05;;;;;;;7.97;7.22;;;15.70;99.90;;;;;;5141953;28;20031;-70
2023/06/13 01:46:51;;;;;;;7.35;6.38;;;15.60;99.90;;;;;;5145364;28;20038;-70
2023/06/13 01:49:28;;;;;;;8.25;6.72;;;15.60;99.90;;;;;;5145490;28;20023;-70
2023/06/13 01:52:08;;;;;;;8.32;7.05;;;15.80;99.90;;;;;;5145479;28;20043;-70
2023/06/13 01:54:45;;;;;;;12.63;6.57;;;15.70;99.90;;;;;;5144660;28;20026;-70
2023/06/13 01:57:20;;;;;;;8.57;6.30;;;15.80;99.90;;;;;;5145405;28;20046;-70
2023/06/13 01:59:55;;;;;;;8.95;6.53;;;15.80;99.90;;;;;;5144041;28;20378;-70
2023/06/13 02:02:27;;;;;;;8.65;6.82;;;15.80;99.90;;;;;;5144489;28;20518;-70
2023/06/13 02:04:58;;;;;;;9.27;7.43;;;15.80;99.90;;;;;;5143597;28;20027;-70
2023/06/13 02:07:29;;;;;;;10.98;7.13;;;15.70;99.90;;;;;;5145325;28;20396;-70
2023/06/13 02:10:01;;;;;;;9.88;7.22;;;15.70;99.90;;;;;;5145064;28;20026;-70
2023/06/13 02:12:33;;;;;;;10.00;7.22;;;15.70;99.90;;;;;;5144403;28;20033;-70
2023/06/13 02:15:04;;;;;;;8.77;7.60;;;15.70;99.90;;;;;;5145042;28;20042;-70
2023/06/13 02:17:35;;;;;;;10.85;7.75;;;15.70;99.90;;;;;;5144967;28;20133;-70
2023/06/13 02:20:07;;;;;;;9.60;7.97;;;15.60;99.90;;;;;;5145064;28;20114;-70
2023/06/13 02:22:37;;;;;;;9.40;8.48;;;15.80;99.90;;;;;;5144012;28;20462;-69
2023/06/13 02:25:09;;;;;;;12.10;9.07;;;15.70;99.90;;;;;;5145006;28;20054;-70
2023/06/13 02:27:40;;;;;;;10.98;8.10;;;15.70;99.90;;;;;;5145029;28;20034;-69
2023/06/13 02:30:12;;;;;;;11.82;7.72;;;15.60;99.90;;;;;;5144571;28;20491;-71
2023/06/13 02:32:43;;;;;;;9.57;8.43;;;15.60;99.90;;;;;;5144731;28;20043;-70
2023/06/13 02:35:14;;;;;;;12.93;8.82;;;15.70;99.90;;;;;;5144979;28;20023;-70
2023/06/13 02:37:45;;;;;;;12.02;8.15;;;15.70;99.90;;;;;;5144920;28;20053;-70
2023/06/13 02:40:17;;;;;;;10.88;8.32;;;15.80;99.90;;;;;;5144207;28;20111;-70
2023/06/13 02:42:49;;;;;;;10.05;8.60;;;16.00;99.90;;;;;;5144962;28;20487;-71
2023/06/13 02:45:20;;;;;;;12.30;8.65;;;15.90;99.90;;;;;;5143591;28;20125;-70
2023/06/13 02:47:50;;;;;;;11.23;8.70;;;16.00;99.90;;;;;;5160043;28;20114;-69
2023/06/13 02:50:22;;;;;;;9.82;8.10;;;16.10;99.90;;;;;;5144048;28;20038;-70
2023/06/13 02:52:53;;;;;;;12.95;7.63;;;16.10;99.90;;;;;;5144763;28;20059;-70
2023/06/13 02:55:24;;;;;;;8.50;7.10;;;16.10;99.90;;;;;;5159880;28;20105;-70
2023/06/13 02:57:55;;;;;;;8.60;7.70;;;16.10;99.90;;;;;;5144219;28;20031;-70
2023/06/13 03:00:26;;;;;;;10.25;7.30;;;16.20;99.90;;;;;;5144697;28;20089;-70
2023/06/13 03:03:01;;;;;;;11.05;7.93;;;16.20;99.90;;;;;;5144629;28;20031;-70
2023/06/13 03:05:32;;;;;;;11.80;7.97;;;16.10;99.90;;;;;;5144731;28;20027;-70
2023/06/13 03:08:04;;;;;;;14.05;9.02;;;16.20;99.90;;;;;;5144083;28;20360;-70
2023/06/13 03:10:35;;;;;;;12.25;9.38;;;16.40;99.90;;;;;;5144503;28;20030;-70
2023/06/13 03:13:06;;;;;;;10.30;9.10;;;16.60;99.90;;;;;;5144650;28;20553;-70
2023/06/13 03:15:37;;;;;;;19.23;9.70;;;16.70;99.90;;;;;;5143395;28;20034;-69
2023/06/13 03:18:08;;;;;;;9.82;8.82;;;16.70;99.90;;;;;;5147274;28;20042;-70
2023/06/13 03:20:45;;;;;;;12.75;8.25;;;16.80;99.90;;;;;;5148230;28;20023;-70
2023/06/13 03:23:16;;;;;;;12.68;9.63;;;16.80;99.90;;;;;;5148311;28;20065;-70
2023/06/13 03:25:47;;;;;;;13.60;8.93;;;16.90;99.90;;;;;;5148134;28;20046;-69
2023/06/13 03:28:18;;;;;;;10.48;8.90;;;16.90;99.90;;;;;;5147180;28;20032;-70
2023/06/13 03:30:51;;;;;;;11.98;9.27;;;16.90;99.90;;;;;;5147914;28;20031;-70
2023/06/13 03:33:22;;;;;;;12.52;9.95;;;17.00;99.90;;;;;;5148119;28;20023;-70
2023/06/13 03:35:53;;;;;;;9.10;8.18;;;17.00;99.90;;;;;;5146749;28;20077;-70
2023/06/13 03:38:27;;;;;;;11.48;8.77;;;17.10;99.90;;;;;;5147517;28;20037;-70
2023/06/13 03:40:58;;;;;;;10.93;8.75;;;17.20;99.90;;;;;;5146555;28;20113;-70
2023/06/13 03:43:29;;;;;;;9.95;9.05;;;17.30;99.90;;;;;;5147796;28;20062;-70
2023/06/13 03:46:00;;;;;;;13.50;9.38;;;17.50;99.90;;;;;;5147526;28;20034;-70
2023/06/13 03:48:31;;;;;;;11.27;9.38;;;17.50;99.90;;;;;;5147078;28;20039;-70
2023/06/13 03:51:02;;;;;;;12.10;8.52;;;17.70;99.90;;;;;;5147471;28;20509;-70
2023/06/13 03:53:33;;;;;;;10.00;7.90;;;17.90;99.90;;;;;;5147793;28;20054;-70
2023/06/13 03:56:04;;;;;;;11.30;8.35;;;18.00;99.90;;;;;;5147532;28;20101;-72
2023/06/13 03:58:35;;;;;;;12.93;7.97;;;18.00;99.90;;;;;;5146682;28;20038;-71
2023/06/13 04:01:06;;;;;;;9.68;8.43;;;17.90;99.90;;;;;;5147533;28;20019;-69
2023/06/13 04:03:39;;;;;;;12.50;8.55;;;17.90;99.90;;;;;;5147484;28;20113;-70
2023/06/13 04:06:10;;;;;;;9.65;8.45;;;18.00;99.90;;;;;;5146604;28;20022;-70
2023/06/13 04:08:41;;;;;;;11.35;7.93;;;18.00;99.90;;;;;;5147415;28;20031;-71
2023/06/13 04:11:12;;;;;;;12.93;7.70;;;18.20;99.90;;;;;;5147265;28;20110;-71
2023/06/13 04:13:42;;;;;;;12.68;8.07;;;18.30;99.90;;;;;;5147393;28;20039;-70
2023/06/13 04:16:13;;;;;;;13.50;9.57;;;18.20;99.90;;;;;;5146207;28;20027;-70
2023/06/13 04:18:45;;;;;;;16.70;8.32;;;18.40;99.90;;;;;;5147596;28;20456;-72
2023/06/13 04:21:16;;;;;;;11.93;8.35;;;18.50;99.90;;;;;;5147339;28;20390;-70
2023/06/13 04:23:48;;;;;;;11.48;8.40;;;18.50;99.90;;;;;;5147203;28;20026;-70
2023/06/13 04:26:20;;;;;;;12.35;7.93;;;18.60;99.90;;;;;;5146201;28;20027;-69
2023/06/13 04:28:52;;;;;;;10.30;7.55;;;18.70;99.90;;;;;;5146297;28;20105;-70
2023/06/13 04:31:24;;;;;;;11.32;7.43;;;18.80;99.90;;;;;;5146882;28;20475;-71
2023/06/13 04:33:55;;;;;;;8.23;7.22;;;18.90;99.90;;;;;;5147043;28;20488;-69
2023/06/13 04:36:28;;;;;;;10.35;7.28;;;19.00;99.90;;;;;;5145985;28;20031;-70
2023/06/13 04:39:06;;;;;;;7.93;7.22;;;19.10;99.90;;;;;;5146783;28;20077;-69
2023/06/13 04:41:38;;;;;;;15.82;7.03;;;19.10;99.90;;;;;;5146845;28;20018;-70
2023/06/13 04:44:10;;;;;;;13.02;7.78;;;19.20;99.90;;;;;;5146666;28;20038;-70
2023/06/13 04:46:41;;;;;;;11.90;7.90;;;19.40;99.90;;;;;;5145812;28;20026;-70
2023/06/13 04:49:15;;;;;;;8.88;7.88;;;19.50;99.90;;;;;;5161466;28;20027;-70
2023/06/13 04:51:47;;;;;;;8.85;5.85;;;19.70;99.90;;;;;;5146461;28;20162;-70
2023/06/13 04:54:19;;;;;;;7.88;6.20;;;19.70;99.90;;;;;;5145814;28;20110;-70
2023/06/13 04:56:50;;;;;;;12.73;7.22;;;19.90;99.90;;;;;;5146513;28;20022;-70
2023/06/13 04:59:20;;;;;;;16.30;7.50;;;20.00;99.90;;;;;;5146525;28;20082;-70
2023/06/13 05:01:51;;;;;;;10.32;6.97;;;20.00;99.90;;;;;;5145100;28;20027;-70
2023/06/13 05:04:22;;;;;;;9.00;6.65;;;19.90;99.90;;;;;;5145475;28;20395;-70
2023/06/13 05:06:53;;;;;;;9.10;6.95;;;20.00;99.90;;;;;;5145318;28;20019;-70
2023/06/13 05:09:25;;;;;;;9.55;6.45;;;19.80;99.90;;;;;;5146128;28;20027;-71
2023/06/13 05:11:56;;;;;;;7.50;6.22;;;19.80;99.90;;;;;;5146099;28;20031;-70
2023/06/13 05:14:28;;;;;;;7.10;5.35;;;19.70;99.90;;;;;;5144704;28;20027;-70
2023/06/13 05:17:05;;;;;;;7.35;5.13;;;19.70;99.90;;;;;;5145583;28;20093;-71
2023/06/13 05:19:37;;;;;;;6.45;5.80;;;19.70;99.90;;;;;;5146201;28;20027;-70
2023/06/13 05:22:08;;;;;;;7.75;7.05;;;19.80;99.90;;;;;;5146067;28;20015;-70
2023/06/13 05:24:39;;;;;;;8.27;7.65;;;19.80;99.90;;;;;;5145426;28;20471;-70
2023/06/13 05:27:11;;;;;;;12.45;9.07;;;19.80;99.90;;;;;;5145400;28;20026;-71
2023/06/13 05:29:42;;;;;;;9.35;8.73;;;19.80;99.90;;;;;;5145874;28;20026;-70
2023/06/13 05:32:12;;;;;;;8.73;8.02;;;20.00;99.90;;;;;;5144490;28;20053;-70
2023/06/13 05:34:43;;;;;;;8.85;8.05;;;20.20;99.90;;;;;;5145079;28;20038;-70
2023/06/13 05:37:14;;;;;;;9.75;7.20;;;20.00;99.90;;;;;;5144453;28;20053;-70
2023/06/13 05:39:45;;;;;;;8.95;6.75;;;20.00;99.90;;;;;;5145549;28;20031;-70
2023/06/13 05:42:16;;;;;;;8.38;6.32;;;19.90;99.90;;;;;;5145646;28;20042;-70
2023/06/13 05:44:47;;;;;;;6.47;5.53;;;20.00;99.90;;;;;;5144522;28;20042;-70
2023/06/13 05:47:18;;;;;;;6.60;5.72;;;20.20;99.90;;;;;;5145839;28;20031;-72
2023/06/13 05:49:49;;;;;;;7.88;5.88;;;20.40;99.90;;;;;;5145790;28;20045;-70
2023/06/13 05:52:20;;;;;;;6.97;6.28;;;20.30;99.90;;;;;;5145503;28;20105;-70
2023/06/13 05:54:50;;;;;;;8.98;6.28;;;20.40;99.90;;;;;;5159660;28;20030;-70
2023/06/13 05:57:24;;;;;;;7.82;7.00;;;20.40;99.90;;;;;;5144332;28;20117;-70
2023/06/13 05:59:55;;;;;;;10.30;6.20;;;20.40;99.90;;;;;;5144260;28;20419;-70
2023/06/13 06:02:25;;;;;;;6.65;5.95;;;20.20;99.90;;;;;;5145403;28;20022;-70
2023/06/13 06:05:00;;;;;;;6.80;6.18;;;20.10;99.90;;;;;;5144733;28;20049;-70
2023/06/13 06:07:31;;;;;;;6.40;5.68;;;20.20;99.90;;;;;;5139494;28;20121;-70
2023/06/13 06:10:03;;;;;;;11.77;5.93;;;20.30;99.90;;;;;;5125268;28;20089;-72
2023/06/13 06:12:34;;;;;;;10.05;5.50;;;20.30;99.90;;;;;;5125329;28;20135;-70
2023/06/13 06:15:06;;;;;;;7.82;5.78;;;20.10;99.90;;;;;;5128861;28;20515;-69
2023/06/13 06:17:37;;;;;;;6.57;5.55;;;20.20;99.90;;;;;;5145073;28;20050;-70
2023/06/13 06:20:08;;;;;;;7.63;6.10;;;20.30;99.90;;;;;;5145349;28;20475;-70
2023/06/13 06:22:39;;;;;;;7.90;6.03;;;20.60;99.90;;;;;;5145097;28;20023;-69
2023/06/13 06:25:12;;;;;;;7.15;6.43;;;20.70;99.90;;;;;;5139392;28;20031;-69
2023/06/13 06:27:43;;;;;;;8.57;6.57;;;20.80;99.90;;;;;;5125101;28;20022;-70
2023/06/13 06:30:14;;;;;;;7.85;6.18;;;20.80;99.90;;;;;;5124958;28;20365;-70
2023/06/13 06:32:45;;;;;;;8.52;6.80;;;21.00;99.90;;;;;;5125028;28;20023;-70
2023/06/13 06:35:16;;;;;;;7.97;6.63;;;21.00;99.90;;;;;;5132990;28;20039;-71
2023/06/13 06:37:47;;;;;;;7.13;6.43;;;21.00;99.90;;;;;;5144988;28;20375;-70
2023/06/13 06:40:18;;;;;;;9.32;6.15;;;21.10;99.90;;;;;;5144885;28;20026;-70
2023/06/13 06:42:49;;;;;;;9.32;6.82;;;21.10;99.90;;;;;;5143524;28;21117;-70
2023/06/13 06:45:21;;;;;;;9.07;7.55;;;21.30;99.90;;;;;;5142630;28;20090;-71
2023/06/13 06:47:52;;;;;;;8.82;7.28;;;21.70;99.90;;;;;;5144626;28;20042;-70
2023/06/13 06:50:22;;;;;;;10.95;7.45;;;21.80;99.90;;;;;;5143394;28;20031;-70
2023/06/13 06:52:53;;;;;;;11.00;6.97;;;22.00;99.90;;;;;;5148614;28;20108;-70
2023/06/13 06:55:24;;;;;;;7.78;6.03;;;22.10;99.90;;;;;;5147092;28;20019;-70
2023/06/13 06:57:55;;;;;;;7.43;5.68;;;22.10;99.90;;;;;;5148588;28;20030;-71
2023/06/13 07:00:26;;;;;;;10.65;5.70;;;22.20;99.90;;;;;;5148693;28;20480;-70
2023/06/13 07:02:57;;;;;;;6.30;5.70;;;22.50;99.90;;;;;;5146950;28;20137;-70
2023/06/13 07:05:27;;;;;;;6.90;5.53;;;22.60;99.90;;;;;;5147973;28;20023;-70
2023/06/13 07:07:58;;;;;;;6.13;5.38;;;22.70;99.90;;;;;;5148501;28;20027;-70
2023/06/13 07:10:29;;;;;;;7.57;6.07;;;22.80;99.90;;;;;;5148353;28;20026;-70
2023/06/13 07:13:01;;;;;;;6.32;5.78;;;23.00;99.90;;;;;;5144211;28;20034;-70
2023/06/13 07:15:32;;;;;;;9.25;8.43;;;23.00;99.90;;;;;;5128129;28;20042;-70
2023/06/13 07:18:03;;;;;;;9.77;9.10;;;22.60;99.90;;;;;;5128335;29;20027;-70
2023/06/13 07:20:34;;;;;;;10.65;7.47;;;22.70;99.90;;;;;;5128655;29;20035;-70
2023/06/13 07:23:06;;;;;;;7.78;7.10;;;22.60;99.90;;;;;;5134341;28;20431;-70
2023/06/13 07:25:38;;;;;;;7.05;6.05;;;22.70;99.90;;;;;;5148420;28;20031;-70
2023/06/13 07:28:09;;;;;;;11.27;5.30;;;22.80;99.90;;;;;;5148256;28;20019;-70
2023/06/13 07:30:40;;;;;;;5.85;5.25;;;22.60;99.90;;;;;;5146880;28;20115;-70
2023/06/13 07:33:12;;;;;;;7.40;5.68;;;22.70;99.90;;;;;;5147147;28;20031;-70
2023/06/13 07:35:43;;;;;;;9.13;5.40;;;22.70;99.90;;;;;;5148184;28;20359;-70
2023/06/13 07:38:14;;;;;;;10.93;5.07;;;22.70;99.90;;;;;;5148135;28;20034;-70
2023/06/13 07:40:45;;;;;;;8.50;5.55;;;22.50;99.90;;;;;;5147989;28;20026;-70
2023/06/13 07:43:16;;;;;;;7.78;5.72;;;22.50;99.90;;;;;;5145976;28;20049;-70
2023/06/13 07:45:47;;;;;;;7.05;6.15;;;22.70;99.90;;;;;;5147751;28;20031;-70
2023/06/13 07:48:18;;;;;;;5.82;5.43;;;23.00;99.90;;;;;;5147972;28;20030;-70
2023/06/13 07:50:49;;;;;;;7.65;5.50;;;23.20;99.90;;;;;;5147525;28;20038;-70
2023/06/13 07:53:20;;;;;;;6.28;5.78;;;23.20;99.90;;;;;;5146837;28;20082;-70
2023/06/13 07:55:53;;;;;;;7.63;5.40;;;23.30;99.90;;;;;;5147548;28;20046;-70
2023/06/13 07:58:24;;;;;;;7.07;5.18;;;23.30;99.90;;;;;;5147701;28;20019;-70
2023/06/13 08:00:54;;;;;;;6.18;5.45;;;23.10;99.90;;;;;;5147710;28;20026;-70
2023/06/13 08:03:25;;;;;;;6.85;4.88;;;23.40;99.90;;;;;;5145485;28;20077;-70
2023/06/13 08:05:57;;;;;;;5.50;4.85;;;23.80;99.90;;;;;;5147654;28;20022;-70
2023/06/13 08:08:28;;;;;;;9.50;5.75;;;23.50;99.90;;;;;;5147191;28;20383;-70
2023/06/13 08:10:58;;;;;;;6.07;5.65;;;23.50;99.90;;;;;;5147349;28;20027;-70
2023/06/13 08:13:29;;;;;;;6.47;5.97;;;23.90;99.90;;;;;;5147431;28;20058;-70
2023/06/13 08:16:01;;;;;;;6.78;5.78;;;23.90;99.90;;;;;;5145446;28;20041;-69
2023/06/13 08:18:32;;;;;;;5.28;4.78;;;23.50;99.90;;;;;;5147423;28;20097;-70
2023/06/13 08:21:03;;;;;;;6.38;5.22;;;23.00;99.90;;;;;;5147286;28;20019;-70
2023/06/13 08:23:33;;;;;;;6.97;4.30;;;23.20;99.90;;;;;;5147108;28;20468;-70
2023/06/13 08:26:04;;;;;;;7.93;5.28;;;23.10;99.90;;;;;;5145710;28;20026;-70
2023/06/13 08:28:35;;;;;;;6.03;5.13;;;23.20;99.90;;;;;;5145361;28;20022;-70
2023/06/13 08:31:06;;;;;;;7.47;4.40;;;22.80;99.90;;;;;;5146808;28;20031;-70
2023/06/13 08:33:38;;;;;;;6.63;4.40;;;23.00;99.90;;;;;;5145565;28;20031;-70
2023/06/13 08:36:09;;;;;;;4.90;4.40;;;22.90;99.90;;;;;;5146934;28;20078;-70
2023/06/13 08:38:40;;;;;;;5.47;4.30;;;23.10;99.90;;;;;;5140708;28;20020;-70
2023/06/13 08:41:11;;;;;;;7.32;4.22;;;22.90;99.90;;;;;;5146802;28;20039;-70
2023/06/13 08:43:43;;;;;;;8.30;3.50;;;22.70;99.90;;;;;;5146753;28;20023;-70
2023/06/13 08:46:14;;;;;;;7.07;4.00;;;22.50;99.90;;;;;;5146786;28;20074;-72
2023/06/13 08:48:45;;;;;;;5.97;4.18;;;22.40;99.90;;;;;;5145386;28;20169;-70
2023/06/13 08:51:18;;;;;;;4.57;4.07;;;22.20;99.90;;;;;;5145665;28;20098;-70
2023/06/13 08:53:51;;;;;;;5.88;4.07;;;22.20;99.90;;;;;;5146043;28;20383;-70
2023/06/13 08:56:23;;;;;;;5.93;3.88;;;22.20;99.90;;;;;;5146492;28;20085;-70
2023/06/13 08:59:00;;;;;;;7.18;4.40;;;22.00;99.90;;;;;;5146422;28;20536;-70
2023/06/13 09:01:32;;;;;;;4.72;4.18;;;22.10;99.90;;;;;;5146360;28;20045;-70
2023/06/13 09:04:04;;;;;;;4.85;4.30;;;22.00;99.90;;;;;;5146274;28;20077;-70
2023/06/13 09:06:37;;;;;;;4.85;4.35;;;22.10;99.90;;;;;;5146345;28;20035;-71
2023/06/13 09:09:09;;;;;;;9.63;4.00;;;22.00;99.90;;;;;;5145442;28;20053;-69
2023/06/13 09:11:40;;;;;;;6.55;4.35;;;21.70;99.90;;;;;;5146049;28;20051;-69
2023/06/13 09:14:12;;;;;;;4.78;3.75;;;21.70;99.90;;;;;;5145588;28;20023;-70
2023/06/13 09:16:45;;;;;;;6.53;4.30;;;21.70;99.90;;;;;;5145515;28;20112;-70
2023/06/13 09:19:16;;;;;;;7.18;5.75;;;21.30;99.90;;;;;;5146083;28;20034;-71
2023/06/13 09:21:47;;;;;;;6.68;5.88;;;21.40;99.90;;;;;;5146075;28;20026;-70
2023/06/13 09:24:18;;;;;;;6.63;5.05;;;21.50;99.90;;;;;;5146010;28;20027;-70
2023/06/13 09:26:50;;;;;;;8.02;5.45;;;21.50;99.90;;;;;;5140550;28;20039;-70
2023/06/13 09:29:30;;;;;;;7.60;6.93;;;21.40;99.90;;;;;;5125881;29;20031;-70
2023/06/13 09:32:01;;;;;;;8.60;6.15;;;22.20;99.90;;;;;;5125908;28;20050;-71
2023/06/13 09:34:33;;;;;;;10.00;5.47;;;22.70;99.90;;;;;;5125788;29;20546;-70
2023/06/13 09:37:09;;;;;;;8.95;5.75;;;22.70;99.90;;;;;;5125739;29;20031;-71
2023/06/13 09:39:53;;;;;;;10.68;6.47;;;22.40;99.90;;;;;;5125957;29;20023;-72
2023/06/13 09:42:24;;;;;;;9.30;5.30;;;23.00;99.90;;;;;;5142770;28;20026;-70
2023/06/13 09:44:55;;;;;;;7.75;5.00;;;23.10;99.90;;;;;;5144127;28;20038;-72
2023/06/13 09:47:27;;;;;;;10.65;4.90;;;22.90;99.90;;;;;;5144309;28;20043;-70
2023/06/13 09:49:58;;;;;;;9.13;5.10;;;23.10;99.90;;;;;;5145309;28;20038;-70
2023/06/13 09:52:33;;;;;;;8.65;5.13;;;23.10;99.90;;;;;;5145783;28;20043;-70
2023/06/13 09:55:04;;;;;;;7.68;4.88;;;23.00;99.90;;;;;;5144602;28;20077;-70
2023/06/13 09:57:35;;;;;;;10.68;4.70;;;23.40;99.90;;;;;;5157669;28;20046;-70
2023/06/13 10:00:09;;;;;;;10.70;4.18;;;23.30;99.90;;;;;;5145305;28;20026;-70
2023/06/13 10:02:43;;;;;;;6.63;4.32;;;23.50;99.90;;;;;;5145205;28;20053;-70
2023/06/13 10:05:15;;;;;;;7.43;4.50;;;22.80;99.90;;;;;;5144918;28;20051;-70
2023/06/13 10:07:47;;;;;;;7.82;4.78;;;22.90;99.90;;;;;;5145267;28;20361;-71
2023/06/13 10:10:18;;;;;;;6.95;5.32;;;22.90;99.90;;;;;;5143566;28;20042;-72
2023/06/13 10:12:58;;;;;;;10.30;5.15;;;23.00;99.90;;;;;;5144378;28;20195;-70
2023/06/13 10:15:52;;;;;;;5.85;4.50;;;23.10;99.90;;;;;;5144741;28;20019;-70
2023/06/13 10:18:29;;;;;;;11.15;5.00;;;22.90;99.90;;;;;;5143451;28;20463;-70
2023/06/13 10:21:01;;;;;;;12.27;5.35;;;22.80;99.90;;;;;;5145114;28;20026;-71
2023/06/13 10:23:36;;;;;;;7.72;5.65;;;22.80;99.90;;;;;;5144362;28;20030;-71
2023/06/13 10:26:11;;;;;;;9.95;5.18;;;22.90;99.90;;;;;;5144258;28;20042;-70
2023/06/13 10:28:51;;;;;;;7.47;5.13;;;22.20;99.90;;;;;;5145162;28;20023;-70
2023/06/13 10:31:58;;;;;;;9.88;5.60;;;22.20;99.90;;;;;;5144857;28;20034;-70
2023/06/13 10:34:50;;;;;;;8.23;5.10;;;21.90;99.90;;;;;;5145047;28;20046;-70
2023/06/13 10:37:42;;;;;;;6.68;4.70;;;21.80;99.90;;;;;;5144919;28;20019;-71
2023/06/13 10:40:34;;;;;;;7.63;4.68;;;21.80;99.90;;;;;;5144056;28;20026;-70
2023/06/13 10:43:11;;;;;;;9.60;4.53;;;21.80;99.90;;;;;;5144737;28;20035;-70
2023/06/13 10:45:44;;;;;;;8.02;4.63;;;21.60;99.90;;;;;;5144786;28;20019;-69
2023/06/13 10:48:21;;;;;;;10.25;4.95;;;21.60;99.90;;;;;;5144927;28;20047;-72
2023/06/13 10:50:56;;;;;;;7.82;4.60;;;21.70;99.90;;;;;;5144856;28;20043;-70
2023/06/13 10:53:27;;;;;;;6.75;5.32;;;21.40;99.90;;;;;;5144092;28;20041;-70
2023/06/13 10:56:00;;;;;;;8.32;5.03;;;21.50;99.90;;;;;;5144900;28;20450;-70
2023/06/13 10:58:33;;;;;;;8.73;5.22;;;21.40;99.90;;;;;;5144901;28;20030;-70
2023/06/13 11:01:26;;;;;;;9.10;5.13;;;21.60;99.90;;;;;;5144789;28;20031;-70
2023/06/13 11:04:07;;;;;;;7.38;5.13;;;21.70;99.90;;;;;;5159709;28;20074;-70
2023/06/13 11:06:43;;;;;;;8.55;5.13;;;21.40;99.90;;;;;;5144638;28;20042;-70
2023/06/13 11:09:15;;;;;;;9.32;4.88;;;21.50;99.90;;;;;;5128151;28;20039;-71
2023/06/13 11:11:50;;;;;;;8.43;5.57;;;21.40;99.90;;;;;;5124668;29;20059;-70
2023/06/13 11:14:25;;;;;;;9.40;5.65;;;21.40;99.90;;;;;;5124668;28;20028;-71
2023/06/13 11:16:56;;;;;;;9.10;5.43;;;21.60;99.90;;;;;;5131912;28;20506;-70
2023/06/13 11:19:28;;;;;;;6.57;4.95;;;21.50;99.90;;;;;;5144537;28;20065;-70
2023/06/13 11:22:02;;;;;;;7.45;4.90;;;21.70;99.90;;;;;;5144564;28;20411;-70
2023/06/13 11:24:34;;;;;;;7.00;4.95;;;21.80;99.90;;;;;;5144546;28;20029;-72
2023/06/13 11:27:07;;;;;;;14.85;5.10;;;22.00;99.90;;;;;;5142372;28;20349;-70
2023/06/13 11:29:38;;;;;;;6.25;4.60;;;21.80;99.90;;;;;;5158783;28;20027;-71
2023/06/13 11:32:11;;;;;;;8.30;4.18;;;21.80;99.90;;;;;;5144367;28;20046;-70
2023/06/13 11:34:46;;;;;;;6.90;4.13;;;21.90;99.90;;;;;;5144449;28;20023;-70
2023/06/13 11:37:27;;;;;;;5.93;4.72;;;22.10;99.90;;;;;;5145636;28;20078;-70
2023/06/13 11:40:02;;;;;;;8.52;4.18;;;22.10;99.90;;;;;;5147965;28;20061;-70
2023/06/13 11:42:33;;;;;;;6.63;4.43;;;22.00;99.90;;;;;;5147936;28;20022;-71
2023/06/13 11:45:04;;;;;;;6.20;4.97;;;21.70;99.90;;;;;;5147100;28;20022;-70
2023/06/13 11:47:35;;;;;;;8.30;4.78;;;21.60;99.90;;;;;;5147702;28;20085;-70
2023/06/13 11:50:07;;;;;;;9.43;4.88;;;21.80;99.90;;;;;;5147790;28;20062;-71
2023/06/13 11:52:38;;;;;;;8.98;4.82;;;21.80;99.90;;;;;;5146363;28;20479;-70
2023/06/13 11:55:19;;;;;;;6.70;4.63;;;22.20;99.90;;;;;;5147852;28;20031;-70
2023/06/13 11:57:50;;;;;;;9.32;5.18;;;22.60;99.90;;;;;;5147952;28;20042;-70
2023/06/13 12:00:25;;;;;;;10.20;5.78;;;22.70;99.90;;;;;;5147734;28;20034;-70
2023/06/13 12:02:58;;;;;;;8.38;5.78;;;22.70;99.90;;;;;;5147160;28;20562;-70
2023/06/13 12:05:31;;;;;;;7.40;6.13;;;22.60;99.90;;;;;;5147668;28;20033;-70
2023/06/13 12:08:03;;;;;;;8.95;6.10;;;22.60;99.90;;;;;;5147572;28;20010;-70
2023/06/13 12:10:33;;;;;;;9.05;6.43;;;22.50;99.90;;;;;;5147463;28;20423;-70
2023/06/13 12:13:04;;;;;;;8.68;5.85;;;22.70;99.90;;;;;;5147360;28;20025;-72
2023/06/13 12:15:35;;;;;;;12.43;6.47;;;22.60;99.90;;;;;;5146956;28;20030;-70
2023/06/13 12:18:06;;;;;;;8.20;6.35;;;22.40;99.90;;;;;;5146625;28;20495;-70
2023/06/13 12:20:53;;;;;;;7.93;6.60;;;22.40;99.90;;;;;;5145985;28;20522;-70
2023/06/13 12:23:24;;;;;;;8.52;6.03;;;22.40;99.90;;;;;;5147233;28;20505;-70
2023/06/13 12:25:56;;;;;;;6.55;5.93;;;22.30;99.90;;;;;;5146660;28;20102;-70
2023/06/13 12:28:28;;;;;;;8.05;6.55;;;22.40;99.90;;;;;;5147053;28;20034;-70
2023/06/13 12:31:07;;;;;;;9.82;6.38;;;22.20;99.90;;;;;;5146969;28;20027;-70
2023/06/13 12:33:38;;;;;;;10.70;6.70;;;22.50;99.90;;;;;;5145740;28;20089;-71
2023/06/13 12:36:11;;;;;;;6.90;6.20;;;22.70;99.90;;;;;;5146211;28;20113;-70
2023/06/13 12:38:44;;;;;;;8.50;5.45;;;22.60;99.90;;;;;;5147005;28;20027;-71
2023/06/13 12:41:15;;;;;;;5.85;5.30;;;22.70;99.90;;;;;;5146865;28;20030;-70
2023/06/13 12:43:47;;;;;;;7.43;5.93;;;22.80;99.90;;;;;;5146642;28;20039;-71
2023/06/13 12:46:18;;;;;;;8.38;5.85;;;22.80;99.90;;;;;;5146639;28;20023;-70
2023/06/13 12:48:51;;;;;;;6.75;5.78;;;22.60;99.90;;;;;;5145931;28;20054;-70
2023/06/13 12:51:29;;;;;;;8.13;6.30;;;22.80;99.90;;;;;;5145541;28;20035;-70
2023/06/13 12:54:20;;;;;;;7.60;6.30;;;22.70;99.90;;;;;;5146489;28;20031;-70
2023/06/13 12:56:51;;;;;;;8.15;7.05;;;22.80;99.90;;;;;;5146612;28;20529;-70
2023/06/13 12:59:41;;;;;;;8.65;6.03;;;22.70;99.90;;;;;;5146412;28;20033;-70
2023/06/13 13:02:14;;;;;;;9.68;5.97;;;22.80;99.90;;;;;;5146487;28;20475;-70
2023/06/13 13:04:45;;;;;;;10.25;6.88;;;23.00;99.90;;;;;;5145673;28;20058;-70
2023/06/13 13:07:17;;;;;;;7.20;6.45;;;23.10;99.90;;;;;;5146449;28;20082;-70
2023/06/13 13:09:48;;;;;;;7.18;6.47;;;22.70;99.90;;;;;;5146341;28;20035;-72
2023/06/13 13:12:19;;;;;;;9.38;6.80;;;22.60;99.90;;;;;;5146102;28;20031;-70